sensor_id;sensor_type;location;lat;lon;timestamp;P1;durP1;ratioP1;P2;durP2;ratioP2
48845;SDS011;34665;51.886;5.436;2024-01-06T00:00:56;40.60;;;14.97;;
48845;SDS011;34665;51.886;5.436;2024-01-06T00:03:21;40.50;;;15.40;;
48845;SDS011;34665;51.886;5.436;2024-01-06T00:05:47;31.20;;;13.90;;
48845;SDS011;34665;51.886;5.436;2024-01-06T00:08:12;32.67;;;13.17;;
48845;SDS011;34665;51.886;5.436;2024-01-06T00:10:38;39.75;;;15.77;;
48845;SDS011;34665;51.886;5.436;2024-01-06T00:13:03;31.30;;;13.43;;
48845;SDS011;34665;51.886;5.436;2024-01-06T00:15:28;30.60;;;12.47;;
48845;SDS011;34665;51.886;5.436;2024-01-06T00:17:54;39.40;;;15.93;;
48845;SDS011;34665;51.886;5.436;2024-01-06T00:20:19;35.50;;;13.63;;
48845;SDS011;34665;51.886;5.436;2024-01-06T00:22:44;38.10;;;15.67;;
48845;SDS011;34665;51.886;5.436;2024-01-06T00:25:10;30.53;;;13.47;;
48845;SDS011;34665;51.886;5.436;2024-01-06T00:27:35;42.03;;;15.60;;
48845;SDS011;34665;51.886;5.436;2024-01-06T00:30:00;37.23;;;15.80;;
48845;SDS011;34665;51.886;5.436;2024-01-06T00:32:26;32.77;;;13.37;;
48845;SDS011;34665;51.886;5.436;2024-01-06T00:34:51;17.42;;;8.35;;
48845;SDS011;34665;51.886;5.436;2024-01-06T00:37:17;25.27;;;11.53;;
48845;SDS011;34665;51.886;5.436;2024-01-06T00:39:42;20.60;;;9.23;;
48845;SDS011;34665;51.886;5.436;2024-01-06T00:42:08;16.67;;;7.53;;
48845;SDS011;34665;51.886;5.436;2024-01-06T00:44:35;32.23;;;12.13;;
48845;SDS011;34665;51.886;5.436;2024-01-06T00:47:01;27.93;;;12.50;;
48845;SDS011;34665;51.886;5.436;2024-01-06T00:49:26;29.17;;;10.25;;
48845;SDS011;34665;51.886;5.436;2024-01-06T00:51:52;26.70;;;11.40;;
48845;SDS011;34665;51.886;5.436;2024-01-06T00:54:18;28.03;;;12.97;;
48845;SDS011;34665;51.886;5.436;2024-01-06T00:56:43;29.27;;;13.33;;
48845;SDS011;34665;51.886;5.436;2024-01-06T00:59:09;23.80;;;10.35;;
48845;SDS011;34665;51.886;5.436;2024-01-06T01:01:34;12.10;;;5.23;;
48845;SDS011;34665;51.886;5.436;2024-01-06T01:03:59;16.43;;;7.67;;
48845;SDS011;34665;51.886;5.436;2024-01-06T01:06:25;20.52;;;10.20;;
48845;SDS011;34665;51.886;5.436;2024-01-06T01:08:51;20.00;;;8.40;;
48845;SDS011;34665;51.886;5.436;2024-01-06T01:11:16;24.30;;;10.25;;
48845;SDS011;34665;51.886;5.436;2024-01-06T01:13:41;26.87;;;11.67;;
48845;SDS011;34665;51.886;5.436;2024-01-06T01:16:07;15.77;;;7.28;;
48845;SDS011;34665;51.886;5.436;2024-01-06T01:18:33;24.58;;;10.20;;
48845;SDS011;34665;51.886;5.436;2024-01-06T01:20:58;21.57;;;9.93;;
48845;SDS011;34665;51.886;5.436;2024-01-06T01:23:23;21.33;;;10.00;;
48845;SDS011;34665;51.886;5.436;2024-01-06T01:25:48;20.97;;;9.87;;
48845;SDS011;34665;51.886;5.436;2024-01-06T01:28:14;12.80;;;6.55;;
48845;SDS011;34665;51.886;5.436;2024-01-06T01:30:39;16.63;;;7.70;;
48845;SDS011;34665;51.886;5.436;2024-01-06T01:33:05;20.70;;;10.53;;
48845;SDS011;34665;51.886;5.436;2024-01-06T01:35:30;15.87;;;8.43;;
48845;SDS011;34665;51.886;5.436;2024-01-06T01:37:55;16.00;;;7.87;;
48845;SDS011;34665;51.886;5.436;2024-01-06T01:40:21;17.20;;;8.70;;
48845;SDS011;34665;51.886;5.436;2024-01-06T01:42:46;16.63;;;7.63;;
48845;SDS011;34665;51.886;5.436;2024-01-06T01:45:12;20.33;;;9.10;;
48845;SDS011;34665;51.886;5.436;2024-01-06T01:47:37;24.95;;;10.77;;
48845;SDS011;34665;51.886;5.436;2024-01-06T01:50:04;20.65;;;9.93;;
48845;SDS011;34665;51.886;5.436;2024-01-06T01:52:30;20.90;;;9.02;;
48845;SDS011;34665;51.886;5.436;2024-01-06T01:54:55;20.20;;;9.70;;
48845;SDS011;34665;51.886;5.436;2024-01-06T01:57:22;17.83;;;8.57;;
48845;SDS011;34665;51.886;5.436;2024-01-06T01:59:49;15.03;;;6.63;;
48845;SDS011;34665;51.886;5.436;2024-01-06T02:02:14;20.47;;;9.00;;
48845;SDS011;34665;51.886;5.436;2024-01-06T02:04:40;12.85;;;6.82;;
48845;SDS011;34665;51.886;5.436;2024-01-06T02:07:06;20.70;;;9.35;;
48845;SDS011;34665;51.886;5.436;2024-01-06T02:09:31;11.90;;;6.13;;
48845;SDS011;34665;51.886;5.436;2024-01-06T02:11:57;13.98;;;6.50;;
48845;SDS011;34665;51.886;5.436;2024-01-06T02:14:23;17.80;;;8.63;;
48845;SDS011;34665;51.886;5.436;2024-01-06T02:16:48;15.03;;;6.83;;
48845;SDS011;34665;51.886;5.436;2024-01-06T02:19:14;21.48;;;11.18;;
48845;SDS011;34665;51.886;5.436;2024-01-06T02:21:41;18.52;;;7.85;;
48845;SDS011;34665;51.886;5.436;2024-01-06T02:24:07;20.23;;;9.68;;
48845;SDS011;34665;51.886;5.436;2024-01-06T02:26:32;17.77;;;7.95;;
48845;SDS011;34665;51.886;5.436;2024-01-06T02:28:58;16.60;;;7.50;;
48845;SDS011;34665;51.886;5.436;2024-01-06T02:31:23;18.60;;;9.23;;
48845;SDS011;34665;51.886;5.436;2024-01-06T02:33:49;20.15;;;9.55;;
48845;SDS011;34665;51.886;5.436;2024-01-06T02:36:14;15.53;;;7.30;;
48845;SDS011;34665;51.886;5.436;2024-01-06T02:38:39;31.37;;;10.13;;
48845;SDS011;34665;51.886;5.436;2024-01-06T02:41:04;19.57;;;9.53;;
48845;SDS011;34665;51.886;5.436;2024-01-06T02:43:30;20.83;;;10.05;;
48845;SDS011;34665;51.886;5.436;2024-01-06T02:45:55;20.60;;;9.50;;
48845;SDS011;34665;51.886;5.436;2024-01-06T02:48:21;9.90;;;5.30;;
48845;SDS011;34665;51.886;5.436;2024-01-06T02:50:46;19.17;;;7.70;;
48845;SDS011;34665;51.886;5.436;2024-01-06T02:53:12;13.50;;;5.70;;
48845;SDS011;34665;51.886;5.436;2024-01-06T02:55:37;27.57;;;12.80;;
48845;SDS011;34665;51.886;5.436;2024-01-06T02:58:03;20.50;;;9.75;;
48845;SDS011;34665;51.886;5.436;2024-01-06T03:00:29;26.98;;;11.35;;
48845;SDS011;34665;51.886;5.436;2024-01-06T03:02:55;26.20;;;10.40;;
48845;SDS011;34665;51.886;5.436;2024-01-06T03:05:20;21.10;;;10.10;;
48845;SDS011;34665;51.886;5.436;2024-01-06T03:07:45;17.43;;;7.73;;
48845;SDS011;34665;51.886;5.436;2024-01-06T03:10:11;26.87;;;11.90;;
48845;SDS011;34665;51.886;5.436;2024-01-06T03:12:36;20.20;;;10.60;;
48845;SDS011;34665;51.886;5.436;2024-01-06T03:15:01;24.13;;;10.80;;
48845;SDS011;34665;51.886;5.436;2024-01-06T03:17:27;26.08;;;10.48;;
48845;SDS011;34665;51.886;5.436;2024-01-06T03:19:54;22.80;;;9.75;;
48845;SDS011;34665;51.886;5.436;2024-01-06T03:22:19;22.13;;;9.47;;
48845;SDS011;34665;51.886;5.436;2024-01-06T03:24:44;26.00;;;11.23;;
48845;SDS011;34665;51.886;5.436;2024-01-06T03:27:10;22.98;;;9.77;;
48845;SDS011;34665;51.886;5.436;2024-01-06T03:29:35;18.60;;;9.48;;
48845;SDS011;34665;51.886;5.436;2024-01-06T03:32:01;15.03;;;7.07;;
48845;SDS011;34665;51.886;5.436;2024-01-06T03:34:26;22.98;;;9.68;;
48845;SDS011;34665;51.886;5.436;2024-01-06T03:36:52;17.58;;;8.30;;
48845;SDS011;34665;51.886;5.436;2024-01-06T03:39:17;20.70;;;8.40;;
48845;SDS011;34665;51.886;5.436;2024-01-06T03:41:43;11.68;;;6.55;;
48845;SDS011;34665;51.886;5.436;2024-01-06T03:44:08;25.30;;;10.47;;
48845;SDS011;34665;51.886;5.436;2024-01-06T03:46:34;19.97;;;9.77;;
48845;SDS011;34665;51.886;5.436;2024-01-06T03:49:00;17.70;;;8.82;;
48845;SDS011;34665;51.886;5.436;2024-01-06T03:51:25;22.80;;;9.47;;
48845;SDS011;34665;51.886;5.436;2024-01-06T03:53:50;24.85;;;10.18;;
48845;SDS011;34665;51.886;5.436;2024-01-06T03:56:16;20.60;;;8.67;;
48845;SDS011;34665;51.886;5.436;2024-01-06T03:58:41;25.70;;;11.20;;
48845;SDS011;34665;51.886;5.436;2024-01-06T04:01:06;28.30;;;11.27;;
48845;SDS011;34665;51.886;5.436;2024-01-06T04:03:31;19.80;;;9.90;;
48845;SDS011;34665;51.886;5.436;2024-01-06T04:05:57;21.33;;;10.13;;
48845;SDS011;34665;51.886;5.436;2024-01-06T04:08:23;19.17;;;8.57;;
48845;SDS011;34665;51.886;5.436;2024-01-06T04:10:48;19.63;;;9.17;;
48845;SDS011;34665;51.886;5.436;2024-01-06T04:13:14;23.65;;;11.02;;
48845;SDS011;34665;51.886;5.436;2024-01-06T04:15:40;15.70;;;8.05;;
48845;SDS011;34665;51.886;5.436;2024-01-06T04:18:05;21.43;;;9.63;;
48845;SDS011;34665;51.886;5.436;2024-01-06T04:20:32;16.90;;;8.15;;
48845;SDS011;34665;51.886;5.436;2024-01-06T04:22:58;21.33;;;9.10;;
48845;SDS011;34665;51.886;5.436;2024-01-06T04:25:24;20.88;;;9.02;;
48845;SDS011;34665;51.886;5.436;2024-01-06T04:27:49;17.20;;;7.97;;
48845;SDS011;34665;51.886;5.436;2024-01-06T04:30:15;18.87;;;7.80;;
48845;SDS011;34665;51.886;5.436;2024-01-06T04:32:41;17.80;;;7.88;;
48845;SDS011;34665;51.886;5.436;2024-01-06T04:35:06;13.32;;;6.90;;
48845;SDS011;34665;51.886;5.436;2024-01-06T04:37:32;28.03;;;11.13;;
48845;SDS011;34665;51.886;5.436;2024-01-06T04:39:57;12.37;;;6.03;;
48845;SDS011;34665;51.886;5.436;2024-01-06T04:42:23;13.02;;;6.88;;
48845;SDS011;34665;51.886;5.436;2024-01-06T04:44:49;26.37;;;10.27;;
48845;SDS011;34665;51.886;5.436;2024-01-06T04:47:14;20.30;;;7.85;;
48845;SDS011;34665;51.886;5.436;2024-01-06T04:49:39;11.70;;;5.27;;
48845;SDS011;34665;51.886;5.436;2024-01-06T04:52:04;20.07;;;8.93;;
48845;SDS011;34665;51.886;5.436;2024-01-06T04:54:30;14.13;;;6.87;;
48845;SDS011;34665;51.886;5.436;2024-01-06T04:56:55;15.32;;;6.45;;
48845;SDS011;34665;51.886;5.436;2024-01-06T04:59:21;10.70;;;5.03;;
48845;SDS011;34665;51.886;5.436;2024-01-06T05:01:47;22.10;;;9.23;;
48845;SDS011;34665;51.886;5.436;2024-01-06T05:04:12;11.13;;;4.63;;
48845;SDS011;34665;51.886;5.436;2024-01-06T05:06:38;12.17;;;5.07;;
48845;SDS011;34665;51.886;5.436;2024-01-06T05:09:03;16.93;;;7.47;;
48845;SDS011;34665;51.886;5.436;2024-01-06T05:11:29;24.98;;;11.40;;
48845;SDS011;34665;51.886;5.436;2024-01-06T05:13:54;17.60;;;7.63;;
48845;SDS011;34665;51.886;5.436;2024-01-06T05:16:20;17.10;;;7.40;;
48845;SDS011;34665;51.886;5.436;2024-01-06T05:18:46;16.05;;;6.07;;
48845;SDS011;34665;51.886;5.436;2024-01-06T05:21:11;32.37;;;12.20;;
48845;SDS011;34665;51.886;5.436;2024-01-06T05:23:37;25.63;;;10.07;;
48845;SDS011;34665;51.886;5.436;2024-01-06T05:26:02;17.55;;;7.63;;
48845;SDS011;34665;51.886;5.436;2024-01-06T05:28:28;17.70;;;7.57;;
48845;SDS011;34665;51.886;5.436;2024-01-06T05:30:53;21.23;;;9.03;;
48845;SDS011;34665;51.886;5.436;2024-01-06T05:33:19;24.70;;;10.70;;
48845;SDS011;34665;51.886;5.436;2024-01-06T05:35:44;15.83;;;7.80;;
48845;SDS011;34665;51.886;5.436;2024-01-06T05:38:09;15.57;;;6.80;;
48845;SDS011;34665;51.886;5.436;2024-01-06T05:40:34;11.97;;;5.63;;
48845;SDS011;34665;51.886;5.436;2024-01-06T05:43:00;32.60;;;12.03;;
48845;SDS011;34665;51.886;5.436;2024-01-06T05:45:25;21.73;;;10.10;;
48845;SDS011;34665;51.886;5.436;2024-01-06T05:47:51;23.90;;;10.20;;
48845;SDS011;34665;51.886;5.436;2024-01-06T05:50:17;17.70;;;7.93;;
48845;SDS011;34665;51.886;5.436;2024-01-06T05:52:42;25.73;;;10.20;;
48845;SDS011;34665;51.886;5.436;2024-01-06T05:55:08;18.03;;;7.33;;
48845;SDS011;34665;51.886;5.436;2024-01-06T05:57:34;13.35;;;6.45;;
48845;SDS011;34665;51.886;5.436;2024-01-06T05:59:59;23.27;;;10.47;;
48845;SDS011;34665;51.886;5.436;2024-01-06T06:02:24;23.40;;;9.90;;
48845;SDS011;34665;51.886;5.436;2024-01-06T06:04:49;18.97;;;9.40;;
48845;SDS011;34665;51.886;5.436;2024-01-06T06:07:15;27.55;;;11.65;;
48845;SDS011;34665;51.886;5.436;2024-01-06T06:09:40;25.37;;;11.30;;
48845;SDS011;34665;51.886;5.436;2024-01-06T06:12:06;18.30;;;6.87;;
48845;SDS011;34665;51.886;5.436;2024-01-06T06:14:32;24.20;;;11.48;;
48845;SDS011;34665;51.886;5.436;2024-01-06T06:16:57;25.93;;;11.57;;
48845;SDS011;34665;51.886;5.436;2024-01-06T06:19:22;25.70;;;11.97;;
48845;SDS011;34665;51.886;5.436;2024-01-06T06:21:48;19.45;;;9.05;;
48845;SDS011;34665;51.886;5.436;2024-01-06T06:24:14;30.10;;;13.33;;
48845;SDS011;34665;51.886;5.436;2024-01-06T06:26:39;26.00;;;11.32;;
48845;SDS011;34665;51.886;5.436;2024-01-06T06:29:04;20.10;;;9.27;;
48845;SDS011;34665;51.886;5.436;2024-01-06T06:31:30;28.15;;;10.32;;
48845;SDS011;34665;51.886;5.436;2024-01-06T06:33:56;25.87;;;12.37;;
48845;SDS011;34665;51.886;5.436;2024-01-06T06:36:21;29.80;;;12.33;;
48845;SDS011;34665;51.886;5.436;2024-01-06T06:38:47;21.65;;;10.50;;
48845;SDS011;34665;51.886;5.436;2024-01-06T06:41:12;23.63;;;11.47;;
48845;SDS011;34665;51.886;5.436;2024-01-06T06:43:38;28.77;;;10.77;;
48845;SDS011;34665;51.886;5.436;2024-01-06T06:46:03;19.73;;;9.30;;
48845;SDS011;34665;51.886;5.436;2024-01-06T06:48:29;22.43;;;10.43;;
48845;SDS011;34665;51.886;5.436;2024-01-06T06:50:54;28.92;;;12.77;;
48845;SDS011;34665;51.886;5.436;2024-01-06T06:53:20;23.83;;;9.70;;
48845;SDS011;34665;51.886;5.436;2024-01-06T06:55:45;28.23;;;11.10;;
48845;SDS011;34665;51.886;5.436;2024-01-06T06:58:11;25.70;;;12.57;;
48845;SDS011;34665;51.886;5.436;2024-01-06T07:00:36;32.03;;;13.53;;
48845;SDS011;34665;51.886;5.436;2024-01-06T07:03:03;24.67;;;11.32;;
48845;SDS011;34665;51.886;5.436;2024-01-06T07:05:28;24.53;;;12.27;;
48845;SDS011;34665;51.886;5.436;2024-01-06T07:07:54;27.27;;;12.13;;
48845;SDS011;34665;51.886;5.436;2024-01-06T07:10:20;26.67;;;12.27;;
48845;SDS011;34665;51.886;5.436;2024-01-06T07:12:45;26.43;;;10.60;;
48845;SDS011;34665;51.886;5.436;2024-01-06T07:15:11;18.43;;;8.57;;
48845;SDS011;34665;51.886;5.436;2024-01-06T07:17:37;15.30;;;7.80;;
48845;SDS011;34665;51.886;5.436;2024-01-06T07:22:29;25.77;;;9.73;;
48845;SDS011;34665;51.886;5.436;2024-01-06T07:24:54;20.17;;;9.00;;
48845;SDS011;34665;51.886;5.436;2024-01-06T07:27:20;23.60;;;8.10;;
48845;SDS011;34665;51.886;5.436;2024-01-06T07:29:46;29.75;;;12.15;;
48845;SDS011;34665;51.886;5.436;2024-01-06T07:32:12;24.90;;;10.93;;
48845;SDS011;34665;51.886;5.436;2024-01-06T07:34:37;30.03;;;13.20;;
48845;SDS011;34665;51.886;5.436;2024-01-06T07:37:03;26.90;;;11.75;;
48845;SDS011;34665;51.886;5.436;2024-01-06T07:39:28;33.07;;;13.20;;
48845;SDS011;34665;51.886;5.436;2024-01-06T07:41:54;24.98;;;10.02;;
48845;SDS011;34665;51.886;5.436;2024-01-06T07:44:19;27.50;;;11.17;;
48845;SDS011;34665;51.886;5.436;2024-01-06T07:46:50;27.30;;;11.90;;
48845;SDS011;34665;51.886;5.436;2024-01-06T07:49:16;32.80;;;13.55;;
48845;SDS011;34665;51.886;5.436;2024-01-06T07:51:41;21.27;;;9.57;;
48845;SDS011;34665;51.886;5.436;2024-01-06T07:54:07;29.10;;;12.10;;
48845;SDS011;34665;51.886;5.436;2024-01-06T07:56:34;23.88;;;11.05;;
48845;SDS011;34665;51.886;5.436;2024-01-06T07:58:59;25.07;;;12.23;;
48845;SDS011;34665;51.886;5.436;2024-01-06T08:01:25;26.40;;;12.57;;
48845;SDS011;34665;51.886;5.436;2024-01-06T08:03:50;26.80;;;11.15;;
48845;SDS011;34665;51.886;5.436;2024-01-06T08:06:16;22.57;;;11.13;;
48845;SDS011;34665;51.886;5.436;2024-01-06T08:08:41;24.10;;;11.27;;
48845;SDS011;34665;51.886;5.436;2024-01-06T08:11:07;26.63;;;10.07;;
48845;SDS011;34665;51.886;5.436;2024-01-06T08:13:33;18.52;;;8.15;;
48845;SDS011;34665;51.886;5.436;2024-01-06T08:15:58;25.00;;;11.90;;
48845;SDS011;34665;51.886;5.436;2024-01-06T08:18:24;23.15;;;9.88;;
48845;SDS011;34665;51.886;5.436;2024-01-06T08:20:50;29.13;;;10.07;;
48845;SDS011;34665;51.886;5.436;2024-01-06T08:23:15;21.50;;;10.47;;
48845;SDS011;34665;51.886;5.436;2024-01-06T08:25:43;24.02;;;11.27;;
48845;SDS011;34665;51.886;5.436;2024-01-06T08:28:09;20.52;;;11.30;;
48845;SDS011;34665;51.886;5.436;2024-01-06T08:30:34;16.43;;;8.97;;
48845;SDS011;34665;51.886;5.436;2024-01-06T08:33:00;24.33;;;11.50;;
48845;SDS011;34665;51.886;5.436;2024-01-06T08:35:26;21.65;;;10.63;;
48845;SDS011;34665;51.886;5.436;2024-01-06T08:37:51;16.17;;;7.70;;
48845;SDS011;34665;51.886;5.436;2024-01-06T08:40:17;25.48;;;11.32;;
48845;SDS011;34665;51.886;5.436;2024-01-06T08:42:42;17.97;;;9.83;;
48845;SDS011;34665;51.886;5.436;2024-01-06T08:45:08;24.23;;;12.13;;
48845;SDS011;34665;51.886;5.436;2024-01-06T08:47:35;13.75;;;8.20;;
48845;SDS011;34665;51.886;5.436;2024-01-06T08:50:00;17.87;;;9.33;;
48845;SDS011;34665;51.886;5.436;2024-01-06T08:52:26;17.20;;;9.45;;
48845;SDS011;34665;51.886;5.436;2024-01-06T08:54:51;20.03;;;9.87;;
48845;SDS011;34665;51.886;5.436;2024-01-06T08:57:16;11.10;;;5.10;;
48845;SDS011;34665;51.886;5.436;2024-01-06T08:59:41;23.13;;;11.23;;
48845;SDS011;34665;51.886;5.436;2024-01-06T09:02:07;14.10;;;6.13;;
48845;SDS011;34665;51.886;5.436;2024-01-06T09:04:32;24.50;;;9.53;;
48845;SDS011;34665;51.886;5.436;2024-01-06T09:06:58;16.95;;;8.02;;
48845;SDS011;34665;51.886;5.436;2024-01-06T09:09:24;21.88;;;10.18;;
48845;SDS011;34665;51.886;5.436;2024-01-06T09:11:49;19.30;;;10.57;;
48845;SDS011;34665;51.886;5.436;2024-01-06T09:14:16;17.80;;;9.67;;
48845;SDS011;34665;51.886;5.436;2024-01-06T09:16:42;18.48;;;9.85;;
48845;SDS011;34665;51.886;5.436;2024-01-06T09:19:07;16.87;;;9.63;;
48845;SDS011;34665;51.886;5.436;2024-01-06T09:21:33;18.30;;;9.27;;
48845;SDS011;34665;51.886;5.436;2024-01-06T09:23:58;20.60;;;9.93;;
48845;SDS011;34665;51.886;5.436;2024-01-06T09:26:23;16.90;;;7.53;;
48845;SDS011;34665;51.886;5.436;2024-01-06T09:28:49;17.80;;;10.60;;
48845;SDS011;34665;51.886;5.436;2024-01-06T09:31:14;19.23;;;10.47;;
48845;SDS011;34665;51.886;5.436;2024-01-06T09:33:40;16.90;;;8.97;;
48845;SDS011;34665;51.886;5.436;2024-01-06T09:36:05;15.13;;;7.43;;
48845;SDS011;34665;51.886;5.436;2024-01-06T09:38:30;16.30;;;9.40;;
48845;SDS011;34665;51.886;5.436;2024-01-06T09:40:56;17.15;;;7.60;;
48845;SDS011;34665;51.886;5.436;2024-01-06T09:43:23;16.90;;;6.82;;
48845;SDS011;34665;51.886;5.436;2024-01-06T09:45:52;20.60;;;9.30;;
48845;SDS011;34665;51.886;5.436;2024-01-06T09:48:22;15.15;;;7.90;;
48845;SDS011;34665;51.886;5.436;2024-01-06T09:50:51;21.45;;;9.05;;
48845;SDS011;34665;51.886;5.436;2024-01-06T09:53:20;16.00;;;9.48;;
48845;SDS011;34665;51.886;5.436;2024-01-06T09:55:45;16.47;;;8.37;;
48845;SDS011;34665;51.886;5.436;2024-01-06T09:58:17;18.55;;;9.13;;
48845;SDS011;34665;51.886;5.436;2024-01-06T10:00:42;15.87;;;7.73;;
48845;SDS011;34665;51.886;5.436;2024-01-06T10:03:07;14.40;;;7.23;;
48845;SDS011;34665;51.886;5.436;2024-01-06T10:05:33;15.23;;;7.25;;
48845;SDS011;34665;51.886;5.436;2024-01-06T10:07:58;14.80;;;7.43;;
48845;SDS011;34665;51.886;5.436;2024-01-06T10:10:24;19.60;;;8.23;;
48845;SDS011;34665;51.886;5.436;2024-01-06T10:12:49;15.10;;;7.97;;
48845;SDS011;34665;51.886;5.436;2024-01-06T10:15:17;14.73;;;6.93;;
48845;SDS011;34665;51.886;5.436;2024-01-06T10:17:43;15.05;;;6.53;;
48845;SDS011;34665;51.886;5.436;2024-01-06T10:20:12;12.50;;;7.10;;
48845;SDS011;34665;51.886;5.436;2024-01-06T10:22:38;14.37;;;6.00;;
48845;SDS011;34665;51.886;5.436;2024-01-06T10:25:05;11.27;;;5.27;;
48845;SDS011;34665;51.886;5.436;2024-01-06T10:27:33;10.57;;;5.10;;
48845;SDS011;34665;51.886;5.436;2024-01-06T10:29:58;13.10;;;6.93;;
48845;SDS011;34665;51.886;5.436;2024-01-06T10:32:23;12.00;;;6.70;;
48845;SDS011;34665;51.886;5.436;2024-01-06T10:34:53;13.30;;;7.18;;
48845;SDS011;34665;51.886;5.436;2024-01-06T10:39:45;10.40;;;5.43;;
48845;SDS011;34665;51.886;5.436;2024-01-06T10:42:11;15.32;;;6.88;;
48845;SDS011;34665;51.886;5.436;2024-01-06T10:44:38;13.40;;;6.50;;
48845;SDS011;34665;51.886;5.436;2024-01-06T10:47:04;10.15;;;5.88;;
48845;SDS011;34665;51.886;5.436;2024-01-06T10:49:32;9.15;;;4.22;;
48845;SDS011;34665;51.886;5.436;2024-01-06T10:51:58;14.77;;;7.78;;
48845;SDS011;34665;51.886;5.436;2024-01-06T10:54:24;16.07;;;8.30;;
48845;SDS011;34665;51.886;5.436;2024-01-06T10:56:51;13.43;;;7.18;;
48845;SDS011;34665;51.886;5.436;2024-01-06T10:59:17;15.32;;;7.70;;
48845;SDS011;34665;51.886;5.436;2024-01-06T11:01:44;20.17;;;8.68;;
48845;SDS011;34665;51.886;5.436;2024-01-06T11:04:10;16.15;;;8.30;;
48845;SDS011;34665;51.886;5.436;2024-01-06T11:06:36;10.52;;;6.43;;
48845;SDS011;34665;51.886;5.436;2024-01-06T11:09:19;16.67;;;8.20;;
48845;SDS011;34665;51.886;5.436;2024-01-06T11:11:47;12.40;;;7.38;;
48845;SDS011;34665;51.886;5.436;2024-01-06T11:16:42;19.55;;;8.68;;
48845;SDS011;34665;51.886;5.436;2024-01-06T11:21:53;11.15;;;6.53;;
48845;SDS011;34665;51.886;5.436;2024-01-06T11:24:19;17.60;;;9.25;;
48845;SDS011;34665;51.886;5.436;2024-01-06T11:26:52;17.52;;;9.38;;
48845;SDS011;34665;51.886;5.436;2024-01-06T11:29:18;15.13;;;7.90;;
48845;SDS011;34665;51.886;5.436;2024-01-06T11:32:15;14.60;;;7.90;;
48845;SDS011;34665;51.886;5.436;2024-01-06T11:34:30;8.98;;;4.72;;
48845;SDS011;34665;51.886;5.436;2024-01-06T11:36:55;7.33;;;4.33;;
48845;SDS011;34665;51.886;5.436;2024-01-06T11:39:40;15.83;;;7.07;;
48845;SDS011;34665;51.886;5.436;2024-01-06T11:42:07;15.57;;;8.27;;
48845;SDS011;34665;51.886;5.436;2024-01-06T11:44:38;22.45;;;9.07;;
48845;SDS011;34665;51.886;5.436;2024-01-06T11:47:04;10.48;;;6.07;;
48845;SDS011;34665;51.886;5.436;2024-01-06T11:49:29;16.90;;;8.43;;
48845;SDS011;34665;51.886;5.436;2024-01-06T11:52:00;16.30;;;8.68;;
48845;SDS011;34665;51.886;5.436;2024-01-06T11:54:26;21.97;;;9.90;;
48845;SDS011;34665;51.886;5.436;2024-01-06T11:56:52;14.13;;;7.22;;
48845;SDS011;34665;51.886;5.436;2024-01-06T11:59:19;10.93;;;6.27;;
48845;SDS011;34665;51.886;5.436;2024-01-06T12:01:44;21.85;;;8.20;;
48845;SDS011;34665;51.886;5.436;2024-01-06T12:04:10;11.63;;;5.70;;
48845;SDS011;34665;51.886;5.436;2024-01-06T12:06:39;18.10;;;9.30;;
48845;SDS011;34665;51.886;5.436;2024-01-06T12:09:08;12.60;;;5.57;;
48845;SDS011;34665;51.886;5.436;2024-01-06T12:11:34;9.45;;;5.00;;
48845;SDS011;34665;51.886;5.436;2024-01-06T12:13:59;13.73;;;7.43;;
48845;SDS011;34665;51.886;5.436;2024-01-06T12:16:24;12.33;;;7.13;;
48845;SDS011;34665;51.886;5.436;2024-01-06T12:18:54;14.20;;;6.40;;
48845;SDS011;34665;51.886;5.436;2024-01-06T12:21:24;16.20;;;7.95;;
48845;SDS011;34665;51.886;5.436;2024-01-06T12:23:50;14.50;;;8.57;;
48845;SDS011;34665;51.886;5.436;2024-01-06T12:26:18;10.55;;;5.68;;
48845;SDS011;34665;51.886;5.436;2024-01-06T12:28:44;15.63;;;6.73;;
48845;SDS011;34665;51.886;5.436;2024-01-06T12:31:09;16.80;;;7.15;;
48845;SDS011;34665;51.886;5.436;2024-01-06T12:33:35;11.87;;;6.60;;
48845;SDS011;34665;51.886;5.436;2024-01-06T12:36:02;9.67;;;5.33;;
48845;SDS011;34665;51.886;5.436;2024-01-06T12:38:29;4.82;;;2.83;;
48845;SDS011;34665;51.886;5.436;2024-01-06T12:40:55;8.93;;;4.47;;
48845;SDS011;34665;51.886;5.436;2024-01-06T12:43:21;14.75;;;6.43;;
48845;SDS011;34665;51.886;5.436;2024-01-06T12:45:46;10.93;;;6.43;;
48845;SDS011;34665;51.886;5.436;2024-01-06T12:48:13;11.90;;;6.05;;
48845;SDS011;34665;51.886;5.436;2024-01-06T12:50:38;8.80;;;4.63;;
48845;SDS011;34665;51.886;5.436;2024-01-06T12:53:03;7.43;;;3.77;;
48845;SDS011;34665;51.886;5.436;2024-01-06T12:55:29;9.40;;;5.20;;
48845;SDS011;34665;51.886;5.436;2024-01-06T12:57:54;13.43;;;7.27;;
48845;SDS011;34665;51.886;5.436;2024-01-06T13:00:19;16.90;;;6.78;;
48845;SDS011;34665;51.886;5.436;2024-01-06T13:02:46;9.45;;;4.05;;
48845;SDS011;34665;51.886;5.436;2024-01-06T13:05:11;16.07;;;7.77;;
48845;SDS011;34665;51.886;5.436;2024-01-06T13:07:38;9.48;;;5.15;;
48845;SDS011;34665;51.886;5.436;2024-01-06T13:12:29;14.90;;;6.20;;
48845;SDS011;34665;51.886;5.436;2024-01-06T13:14:55;12.30;;;6.43;;
48845;SDS011;34665;51.886;5.436;2024-01-06T13:17:20;22.13;;;10.47;;
48845;SDS011;34665;51.886;5.436;2024-01-06T13:19:45;15.80;;;9.20;;
48845;SDS011;34665;51.886;5.436;2024-01-06T13:22:11;15.13;;;8.63;;
48845;SDS011;34665;51.886;5.436;2024-01-06T13:24:36;19.07;;;8.97;;
48845;SDS011;34665;51.886;5.436;2024-01-06T13:27:02;15.73;;;8.23;;
48845;SDS011;34665;51.886;5.436;2024-01-06T13:29:29;14.90;;;8.98;;
48845;SDS011;34665;51.886;5.436;2024-01-06T13:31:55;16.23;;;8.77;;
48845;SDS011;34665;51.886;5.436;2024-01-06T13:34:21;16.13;;;9.45;;
48845;SDS011;34665;51.886;5.436;2024-01-06T13:36:46;17.33;;;9.23;;
48845;SDS011;34665;51.886;5.436;2024-01-06T13:39:12;18.30;;;9.13;;
48845;SDS011;34665;51.886;5.436;2024-01-06T13:41:46;15.85;;;8.77;;
48845;SDS011;34665;51.886;5.436;2024-01-06T13:44:12;16.50;;;9.50;;
48845;SDS011;34665;51.886;5.436;2024-01-06T13:46:38;18.07;;;7.93;;
48845;SDS011;34665;51.886;5.436;2024-01-06T13:49:03;16.70;;;8.88;;
48845;SDS011;34665;51.886;5.436;2024-01-06T13:51:29;16.97;;;10.27;;
48845;SDS011;34665;51.886;5.436;2024-01-06T13:53:54;22.43;;;11.23;;
48845;SDS011;34665;51.886;5.436;2024-01-06T13:56:19;19.83;;;11.03;;
48845;SDS011;34665;51.886;5.436;2024-01-06T13:58:45;25.13;;;11.03;;
48845;SDS011;34665;51.886;5.436;2024-01-06T14:01:10;19.43;;;10.57;;
48845;SDS011;34665;51.886;5.436;2024-01-06T14:03:36;18.80;;;10.75;;
48845;SDS011;34665;51.886;5.436;2024-01-06T14:06:01;21.87;;;11.53;;
48845;SDS011;34665;51.886;5.436;2024-01-06T14:08:27;21.53;;;11.30;;
48845;SDS011;34665;51.886;5.436;2024-01-06T14:10:53;18.97;;;9.90;;
48845;SDS011;34665;51.886;5.436;2024-01-06T14:13:18;17.73;;;9.73;;
48845;SDS011;34665;51.886;5.436;2024-01-06T14:15:44;24.20;;;11.93;;
48845;SDS011;34665;51.886;5.436;2024-01-06T14:18:09;22.80;;;11.10;;
48845;SDS011;34665;51.886;5.436;2024-01-06T14:20:37;19.65;;;10.60;;
48845;SDS011;34665;51.886;5.436;2024-01-06T14:25:28;9.57;;;5.18;;
48845;SDS011;34665;51.886;5.436;2024-01-06T14:27:54;15.93;;;6.72;;
48845;SDS011;34665;51.886;5.436;2024-01-06T14:30:20;15.30;;;7.80;;
48845;SDS011;34665;51.886;5.436;2024-01-06T14:32:45;17.70;;;9.03;;
48845;SDS011;34665;51.886;5.436;2024-01-06T14:35:11;22.90;;;10.20;;
48845;SDS011;34665;51.886;5.436;2024-01-06T14:37:38;20.50;;;10.35;;